createdAt,value
2019-01-18T00:00:11.675Z,-6.42
2019-01-18T00:01:21.580Z,-6.41
2019-01-18T00:02:31.514Z,-6.46
2019-01-18T00:03:41.419Z,-6.42
2019-01-18T00:04:51.371Z,-6.41
2019-01-18T00:06:01.274Z,-6.45
2019-01-18T00:07:11.182Z,-6.52
2019-01-18T00:08:21.086Z,-6.58
2019-01-18T00:09:30.993Z,-6.58
2019-01-18T00:10:40.752Z,-6.48
2019-01-18T00:11:50.655Z,-6.49
2019-01-18T00:13:00.563Z,-6.42
2019-01-18T00:14:10.472Z,-6.31
2019-01-18T00:15:20.377Z,-6.36
2019-01-18T00:16:30.330Z,-6.3
2019-01-18T00:17:40.229Z,-6.27
2019-01-18T00:18:50.134Z,-6.36
2019-01-18T00:20:00.039Z,-6.26
2019-01-18T00:21:09.950Z,-6.36
2019-01-18T00:22:19.912Z,-6.33
2019-01-18T00:23:31.162Z,-6.39
2019-01-18T00:24:41.065Z,-6.39
2019-01-18T00:25:50.997Z,-6.45
2019-01-18T00:27:00.908Z,-6.49
2019-01-18T00:28:10.964Z,-6.52
2019-01-18T00:29:20.877Z,-6.39
2019-01-18T00:30:37.142Z,-6.38
2019-01-18T00:31:47.051Z,-6.39
2019-01-18T00:32:56.960Z,-6.39
2019-01-18T00:34:06.974Z,-6.33
2019-01-18T00:35:16.873Z,-6.26
2019-01-18T00:36:26.776Z,-6.27
2019-01-18T00:37:36.678Z,-6.23
2019-01-18T00:38:46.586Z,-6.2
2019-01-18T00:39:56.592Z,-6.05
2019-01-18T00:41:06.511Z,-6.02
2019-01-18T00:42:16.437Z,-5.97
2019-01-18T00:43:26.345Z,-5.95
2019-01-18T00:44:36.251Z,-5.82
2019-01-18T00:45:46.254Z,-5.91
2019-01-18T00:46:56.164Z,-5.85
2019-01-18T00:48:06.076Z,-5.77
2019-01-18T00:49:15.981Z,-5.78
2019-01-18T00:50:25.887Z,-5.82
2019-01-18T00:51:35.842Z,-5.68
2019-01-18T00:52:45.540Z,-5.66
2019-01-18T00:53:55.445Z,-5.59
2019-01-18T00:55:05.353Z,-5.53
2019-01-18T00:56:15.261Z,-5.58
2019-01-18T00:57:25.267Z,-5.49
2019-01-18T00:58:35.171Z,-5.48
2019-01-18T00:59:45.094Z,-5.48
2019-01-18T01:00:54.999Z,-5.43
2019-01-18T01:02:04.907Z,-5.48
2019-01-18T01:03:14.924Z,-5.43
2019-01-18T01:04:24.831Z,-5.35
2019-01-18T01:05:34.737Z,-5.41
2019-01-18T01:06:44.644Z,-5.37
2019-01-18T01:07:54.552Z,-5.38
2019-01-18T01:09:04.656Z,-5.5
2019-01-18T01:10:14.559Z,-5.55
2019-01-18T01:11:24.515Z,-5.59
2019-01-18T01:12:34.426Z,-5.64
2019-01-18T01:13:44.333Z,-5.67
2019-01-18T01:14:54.288Z,-5.67
2019-01-18T01:16:04.195Z,-5.7
2019-01-18T01:17:14.099Z,-5.76
2019-01-18T01:18:24.005Z,-5.89
2019-01-18T01:19:33.915Z,-6.03
2019-01-18T01:20:43.923Z,-6.12
2019-01-18T01:21:53.826Z,-6.12
2019-01-18T01:23:03.742Z,-6.21
2019-01-18T01:24:13.648Z,-6.26
2019-01-18T01:25:23.556Z,-6.3
2019-01-18T01:26:33.507Z,-6.31
2019-01-18T01:27:43.419Z,-6.33
2019-01-18T01:28:53.321Z,-6.41
2019-01-18T01:30:03.228Z,-6.38
2019-01-18T01:31:13.133Z,-6.41
2019-01-18T01:32:23.134Z,-6.49
2019-01-18T01:33:33.039Z,-6.48
2019-01-18T01:34:42.947Z,-6.58
2019-01-18T01:35:52.857Z,-6.49
2019-01-18T01:37:02.768Z,-6.48
2019-01-18T01:38:12.723Z,-6.45
2019-01-18T01:39:22.861Z,-6.58
2019-01-18T01:40:32.763Z,-6.54
2019-01-18T01:41:42.675Z,-6.63
2019-01-18T01:42:52.581Z,-6.58
2019-01-18T01:44:02.483Z,-6.7
2019-01-18T01:45:12.395Z,-6.71
2019-01-18T01:46:22.308Z,-6.61
2019-01-18T01:47:32.208Z,-6.76
2019-01-18T01:48:42.111Z,-6.7
2019-01-18T01:49:52.116Z,-6.75
2019-01-18T01:51:02.021Z,-6.76
2019-01-18T01:52:11.673Z,-6.7
2019-01-18T01:53:21.576Z,-6.56
2019-01-18T01:54:31.478Z,-6.6
2019-01-18T01:55:41.484Z,-6.61
2019-01-18T01:56:51.389Z,-6.42
2019-01-18T01:58:01.297Z,-6.31
2019-01-18T01:59:11.206Z,-6.28
2019-01-18T02:00:21.110Z,-6.28
2019-01-18T02:01:31.014Z,-6.1
2019-01-18T02:02:40.924Z,-6.05
2019-01-18T02:03:50.831Z,-6.07
2019-01-18T02:05:00.734Z,-6.03
2019-01-18T02:06:10.647Z,-6.02
2019-01-18T02:07:20.610Z,-6.07
2019-01-18T02:08:30.525Z,-6.06
2019-01-18T02:09:40.429Z,-6.06
2019-01-18T02:10:50.330Z,-5.99
2019-01-18T02:12:00.233Z,-6.03
2019-01-18T02:13:10.293Z,-5.95
2019-01-18T02:14:20.203Z,-5.94
2019-01-18T02:15:29.864Z,-5.97
2019-01-18T02:16:39.764Z,-5.94
2019-01-18T02:17:49.416Z,-5.92
2019-01-18T02:18:59.470Z,-5.92
2019-01-18T02:20:09.379Z,-5.97
2019-01-18T02:21:19.287Z,-6.06
2019-01-18T02:22:29.211Z,-6.06
2019-01-18T02:23:39.116Z,-6.18
2019-01-18T02:24:49.124Z,-6.24
2019-01-18T02:25:59.028Z,-6.27
2019-01-18T02:27:08.677Z,-6.31
2019-01-18T02:28:18.582Z,-6.38
2019-01-18T02:29:28.486Z,-6.45
2019-01-18T02:30:38.393Z,-6.44
2019-01-18T02:31:48.305Z,-6.52
2019-01-18T02:32:58.212Z,-6.51
2019-01-18T02:34:08.124Z,-6.51
2019-01-18T02:35:18.137Z,-6.48
2019-01-18T02:36:27.805Z,-6.58
2019-01-18T02:37:37.468Z,-6.48
2019-01-18T02:38:47.376Z,-6.54
2019-01-18T02:39:57.283Z,-6.56
2019-01-18T02:41:06.986Z,-6.64
2019-01-18T02:42:16.932Z,-6.52
2019-01-18T02:43:26.847Z,-6.54
2019-01-18T02:44:36.768Z,-6.54
2019-01-18T02:45:46.437Z,-6.34
2019-01-18T02:46:56.348Z,-6.38
2019-01-18T02:48:06.362Z,-6.41
2019-01-18T02:49:16.273Z,-6.33
2019-01-18T02:50:26.186Z,-6.44
2019-01-18T02:51:36.088Z,-6.48
2019-01-18T02:52:45.990Z,-6.46
2019-01-18T02:53:55.899Z,-6.56
2019-01-18T02:55:05.809Z,-6.58
2019-01-18T02:56:15.717Z,-6.58
2019-01-18T02:57:25.627Z,-6.71
2019-01-18T02:58:35.533Z,-6.68
2019-01-18T02:59:45.538Z,-6.78
2019-01-18T03:00:55.449Z,-6.82
2019-01-18T03:02:05.122Z,-6.79
2019-01-18T03:03:14.781Z,-6.84
2019-01-18T03:04:24.690Z,-6.78
2019-01-18T03:05:34.596Z,-6.85
2019-01-18T03:06:44.511Z,-6.79
2019-01-18T03:07:54.173Z,-6.88
2019-01-18T03:09:04.081Z,-6.92
2019-01-18T03:10:13.984Z,-6.81
2019-01-18T03:11:23.966Z,-6.97
2019-01-18T03:12:33.868Z,-7.05
2019-01-18T03:13:43.792Z,-7.05
2019-01-18T03:14:53.709Z,-7.07
2019-01-18T03:16:03.613Z,-7.14
2019-01-18T03:17:13.648Z,-7.24
2019-01-18T03:18:23.549Z,-7.21
2019-01-18T03:19:33.497Z,-7.24
2019-01-18T03:20:43.412Z,-7.18
2019-01-18T03:21:53.326Z,-7.27
2019-01-18T03:23:03.034Z,-7.27
2019-01-18T03:24:12.958Z,-7.25
2019-01-18T03:25:22.875Z,-7.3
2019-01-18T03:26:32.784Z,-7.28
2019-01-18T03:27:42.449Z,-7.27
2019-01-18T03:28:52.473Z,-7.23
2019-01-18T03:30:02.393Z,-7.32
2019-01-18T03:31:26.718Z,-7.39
2019-01-18T03:32:36.654Z,-7.3
2019-01-18T03:33:46.580Z,-7.3
2019-01-18T03:34:56.543Z,-7.07
2019-01-18T03:36:06.455Z,-7.07
2019-01-18T03:37:16.103Z,-7.02
2019-01-18T03:38:26.006Z,-7.06
2019-01-18T03:39:37.973Z,-6.92
2019-01-18T03:40:47.880Z,-6.96
2019-01-18T03:41:57.793Z,-7
2019-01-18T03:43:07.705Z,-6.95
2019-01-18T03:44:17.614Z,-6.82
2019-01-18T03:45:27.578Z,-6.88
2019-01-18T03:46:37.483Z,-6.88
2019-01-18T03:47:47.420Z,-6.85
2019-01-18T03:48:57.331Z,-6.88
2019-01-18T03:50:07.242Z,-7
2019-01-18T03:51:17.264Z,-6.91
2019-01-18T03:52:27.179Z,-7.06
2019-01-18T03:53:37.084Z,-7.13
2019-01-18T03:54:46.987Z,-7.2
2019-01-18T03:55:56.899Z,-7.27
2019-01-18T03:57:06.911Z,-7.3
2019-01-18T03:58:16.580Z,-7.39
2019-01-18T03:59:26.892Z,-7.38
2019-01-18T04:00:36.809Z,-7.44
2019-01-18T04:01:46.716Z,-7.32
2019-01-18T04:02:56.482Z,-7.42
2019-01-18T04:04:06.433Z,-7.35
2019-01-18T04:05:16.347Z,-7.44
2019-01-18T04:06:26.018Z,-7.41
2019-01-18T04:07:35.926Z,-7.48
2019-01-18T04:08:45.929Z,-7.45
2019-01-18T04:09:55.833Z,-7.38
2019-01-18T04:11:05.749Z,-7.42
2019-01-18T04:12:15.656Z,-7.35
2019-01-18T04:13:25.570Z,-7.38
2019-01-18T04:14:35.583Z,-7.36
2019-01-18T04:15:45.499Z,-7.3
2019-01-18T04:16:55.418Z,-7.35
2019-01-18T04:18:05.330Z,-7.3
2019-01-18T04:19:15.237Z,-7.3
2019-01-18T04:20:25.243Z,-7.3
2019-01-18T04:21:35.147Z,-7.35
2019-01-18T04:22:45.061Z,-7.35
2019-01-18T04:23:54.967Z,-7.3
2019-01-18T04:25:05.055Z,-7.35
2019-01-18T04:26:15.018Z,-7.24
2019-01-18T04:27:24.679Z,-7.28
2019-01-18T04:28:34.586Z,-7.27
2019-01-18T04:29:44.489Z,-7.25
2019-01-18T04:30:54.394Z,-7.2
2019-01-18T04:32:04.356Z,-7.21
2019-01-18T04:33:14.283Z,-7.23
2019-01-18T04:34:24.188Z,-7.2
2019-01-18T04:35:34.097Z,-7.17
2019-01-18T04:36:44.002Z,-7.23
2019-01-18T04:37:53.974Z,-7.25
2019-01-18T04:39:03.896Z,-7.24
2019-01-18T04:40:13.806Z,-7.23
2019-01-18T04:41:23.743Z,-7.28
2019-01-18T04:42:33.675Z,-7.34
2019-01-18T04:43:43.431Z,-7.34
2019-01-18T04:44:53.339Z,-7.44
2019-01-18T04:46:03.248Z,-7.44
2019-01-18T04:47:13.156Z,-7.5
2019-01-18T04:48:23.060Z,-7.53
2019-01-18T04:49:33.095Z,-7.55
2019-01-18T04:50:43.004Z,-7.52
2019-01-18T04:51:52.926Z,-7.55
2019-01-18T04:53:02.581Z,-7.56
2019-01-18T04:54:12.487Z,-7.55
2019-01-18T04:55:22.448Z,-7.57
2019-01-18T04:56:32.361Z,-7.56
2019-01-18T04:57:42.271Z,-7.67
2019-01-18T04:58:52.182Z,-7.5
2019-01-18T05:00:02.092Z,-7.59
2019-01-18T05:01:12.050Z,-7.55
2019-01-18T05:02:21.965Z,-7.48
2019-01-18T05:03:31.899Z,-7.55
2019-01-18T05:04:41.842Z,-7.52
2019-01-18T05:05:51.778Z,-7.64
2019-01-18T05:07:01.738Z,-7.48
2019-01-18T05:08:11.412Z,-7.52
2019-01-18T05:09:21.325Z,-7.45
2019-01-18T05:10:31.240Z,-7.46
2019-01-18T05:11:41.162Z,-7.41
2019-01-18T05:12:51.171Z,-7.35
2019-01-18T05:14:01.090Z,-7.38
2019-01-18T05:15:11.011Z,-7.3
2019-01-18T05:16:20.929Z,-7.27
2019-01-18T05:17:30.837Z,-7.38
2019-01-18T05:18:40.803Z,-7.27
2019-01-18T05:19:50.717Z,-7.23
2019-01-18T05:21:00.624Z,-7.2
2019-01-18T05:22:10.531Z,-7.23
2019-01-18T05:23:20.200Z,-7.15
2019-01-18T05:24:30.212Z,-7.13
2019-01-18T05:25:40.125Z,-7.13
2019-01-18T05:26:50.033Z,-7.07
2019-01-18T05:27:59.941Z,-7.07
2019-01-18T05:29:09.600Z,-6.96
2019-01-18T05:30:19.568Z,-6.97
2019-01-18T05:31:29.468Z,-7.02
2019-01-18T05:32:39.379Z,-7.02
2019-01-18T05:33:49.297Z,-6.92
2019-01-18T05:34:59.209Z,-6.92
2019-01-18T05:36:09.115Z,-6.91
2019-01-18T05:37:19.022Z,-6.88
2019-01-18T05:38:28.928Z,-6.84
2019-01-18T05:39:38.848Z,-6.88
2019-01-18T05:40:48.784Z,-6.92
2019-01-18T05:41:58.794Z,-6.84
2019-01-18T05:43:08.700Z,-6.85
2019-01-18T05:44:18.617Z,-6.81
2019-01-18T05:45:28.529Z,-6.73
2019-01-18T05:46:38.443Z,-6.7
2019-01-18T05:47:48.401Z,-6.63
2019-01-18T05:48:58.401Z,-6.66
2019-01-18T05:50:08.311Z,-6.51
2019-01-18T05:51:18.215Z,-6.56
2019-01-18T05:52:28.130Z,-6.54
2019-01-18T05:53:38.088Z,-6.49
2019-01-18T05:54:48.002Z,-6.46
2019-01-18T05:55:57.932Z,-6.48
2019-01-18T05:57:07.852Z,-6.44
2019-01-18T05:58:17.761Z,-6.31
2019-01-18T05:59:27.676Z,-6.33
2019-01-18T06:00:37.586Z,-6.3
2019-01-18T06:01:47.494Z,-6.28
2019-01-18T06:02:57.241Z,-6.3
2019-01-18T06:04:07.154Z,-6.23
2019-01-18T06:05:17.886Z,-6.2
2019-01-18T06:06:27.789Z,-6.09
2019-01-18T06:07:37.711Z,-6.13
2019-01-18T06:08:47.629Z,-6.16
2019-01-18T06:09:57.546Z,-6.06
2019-01-18T06:11:07.509Z,-6.15
2019-01-18T06:12:17.466Z,-6.06
2019-01-18T06:13:27.372Z,-6.05
2019-01-18T06:14:37.282Z,-6.13
2019-01-18T06:15:47.215Z,-6.05
2019-01-18T06:16:57.224Z,-6.07
2019-01-18T06:18:07.138Z,-6.07
2019-01-18T06:19:17.048Z,-6.05
2019-01-18T06:20:26.960Z,-5.99
2019-01-18T06:21:36.866Z,-6
2019-01-18T06:22:46.894Z,-5.95
2019-01-18T06:23:56.808Z,-5.94
2019-01-18T06:25:06.751Z,-5.88
2019-01-18T06:26:16.695Z,-5.78
2019-01-18T06:27:27.974Z,-5.77
2019-01-18T06:28:37.882Z,-5.78
2019-01-18T06:29:47.788Z,-5.84
2019-01-18T06:31:04.278Z,-5.78
2019-01-18T06:32:14.187Z,-5.82
2019-01-18T06:33:24.130Z,-5.85
2019-01-18T06:34:35.254Z,-5.89
2019-01-18T06:35:45.165Z,-5.81
2019-01-18T06:36:55.089Z,-5.85
2019-01-18T06:38:05.008Z,-5.81
2019-01-18T06:39:14.915Z,-5.82
2019-01-18T06:40:24.877Z,-5.73
2019-01-18T06:41:34.790Z,-5.77
2019-01-18T06:42:44.716Z,-5.67
2019-01-18T06:43:55.301Z,-5.58
2019-01-18T06:45:04.960Z,-5.55
2019-01-18T06:46:14.660Z,-5.53
2019-01-18T06:47:24.567Z,-5.52
2019-01-18T06:48:34.237Z,-5.46
2019-01-18T06:49:44.148Z,-5.45
2019-01-18T06:50:54.059Z,-5.38
2019-01-18T06:52:04.122Z,-5.27
2019-01-18T06:53:13.780Z,-5.3
2019-01-18T06:54:23.693Z,-5.27
2019-01-18T06:55:33.607Z,-5.17
2019-01-18T06:56:43.528Z,-5.09
2019-01-18T06:57:53.488Z,-5.23
2019-01-18T06:59:03.397Z,-5.21
2019-01-18T07:00:13.063Z,-5.13
2019-01-18T07:01:22.969Z,-5.05
2019-01-18T07:02:32.888Z,-4.97
2019-01-18T07:03:42.993Z,-4.91
2019-01-18T07:04:52.901Z,-5.06
2019-01-18T07:06:03.330Z,-5.12
2019-01-18T07:07:13.305Z,-5.1
2019-01-18T07:08:23.213Z,-5.13
2019-01-18T07:09:33.182Z,-5.12
2019-01-18T07:10:43.096Z,-5.25
2019-01-18T07:11:53.001Z,-5.41
2019-01-18T07:13:02.913Z,-5.35
2019-01-18T07:14:12.824Z,-5.41
2019-01-18T07:15:22.840Z,-5.49
2019-01-18T07:16:32.771Z,-5.59
2019-01-18T07:17:42.675Z,-5.58
2019-01-18T07:18:52.584Z,-5.63
2019-01-18T07:20:02.571Z,-5.66
2019-01-18T07:21:12.643Z,-5.73
2019-01-18T07:22:22.550Z,-5.81
2019-01-18T07:23:32.459Z,-5.84
2019-01-18T07:24:42.375Z,-5.78
2019-01-18T07:25:52.280Z,-5.85
2019-01-18T07:27:02.334Z,-5.82
2019-01-18T07:28:12.256Z,-5.85
2019-01-18T07:29:21.917Z,-5.87
2019-01-18T07:30:31.832Z,-5.84
2019-01-18T07:31:41.493Z,-5.81
2019-01-18T07:32:51.502Z,-5.68
2019-01-18T07:34:01.411Z,-5.71
2019-01-18T07:35:11.318Z,-5.7
2019-01-18T07:36:21.226Z,-5.59
2019-01-18T07:37:31.132Z,-5.58
2019-01-18T07:38:41.149Z,-5.68
2019-01-18T07:39:51.061Z,-5.67
2019-01-18T07:41:00.969Z,-5.64
2019-01-18T07:42:10.879Z,-5.6
2019-01-18T07:43:20.792Z,-5.56
2019-01-18T07:44:30.848Z,-5.63
2019-01-18T07:45:40.795Z,-5.58
2019-01-18T07:46:50.707Z,-5.64
2019-01-18T07:48:00.619Z,-5.64
2019-01-18T07:49:10.271Z,-5.52
2019-01-18T07:50:24.813Z,-5.56
2019-01-18T07:51:34.721Z,-5.49
2019-01-18T07:52:44.633Z,-5.55
2019-01-18T07:53:54.547Z,-5.59
2019-01-18T07:55:04.462Z,-5.56
2019-01-18T07:56:14.458Z,-5.43
2019-01-18T07:57:24.365Z,-5.59
2019-01-18T07:58:34.270Z,-5.55
2019-01-18T07:59:44.183Z,-5.6
2019-01-18T08:00:54.138Z,-5.5
2019-01-18T08:02:05.256Z,-5.45
2019-01-18T08:03:15.173Z,-5.81
2019-01-18T08:04:25.080Z,-5.82
2019-01-18T08:05:34.988Z,-5.81
2019-01-18T08:06:44.898Z,-5.78
2019-01-18T08:07:54.856Z,-5.89
2019-01-18T08:09:04.766Z,-5.91
2019-01-18T08:10:14.674Z,-5.92
2019-01-18T08:11:24.584Z,-6.03
2019-01-18T08:12:34.494Z,-6.05
2019-01-18T08:13:44.452Z,-6.1
2019-01-18T08:14:54.367Z,-6.09
2019-01-18T08:16:04.276Z,-6.12
2019-01-18T08:17:14.180Z,-6.23
2019-01-18T08:18:24.094Z,-6.23
2019-01-18T08:19:34.166Z,-6.34
2019-01-18T08:20:44.072Z,-6.36
2019-01-18T08:21:53.980Z,-6.36
2019-01-18T08:23:03.895Z,-6.27
2019-01-18T08:24:13.803Z,-6.23
2019-01-18T08:25:23.860Z,-6.27
2019-01-18T08:26:33.771Z,-6.06
2019-01-18T08:27:43.677Z,-6.09
2019-01-18T08:28:53.586Z,-6
2019-01-18T08:30:03.513Z,-6.06
2019-01-18T08:31:13.480Z,-6
2019-01-18T08:32:23.408Z,-6.06
2019-01-18T08:33:33.314Z,-6.03
2019-01-18T08:34:43.222Z,-6
2019-01-18T08:35:52.882Z,-6.02
2019-01-18T08:37:02.856Z,-6.07
2019-01-18T08:38:12.763Z,-6.07
2019-01-18T08:39:22.728Z,-6.02
2019-01-18T08:40:32.632Z,-6.07
2019-01-18T08:41:42.630Z,-6.07
2019-01-18T08:42:52.663Z,-6.05
2019-01-18T08:44:02.568Z,-6.1
2019-01-18T08:45:12.481Z,-6.26
2019-01-18T08:46:22.387Z,-6.24
2019-01-18T08:47:32.045Z,-6.33
2019-01-18T08:48:42.062Z,-6.34
2019-01-18T08:49:51.979Z,-6.49
2019-01-18T08:51:01.899Z,-6.54
2019-01-18T08:52:11.809Z,-6.56
2019-01-18T08:53:21.735Z,-6.45
2019-01-18T08:54:31.793Z,-6.56
2019-01-18T08:55:41.704Z,-6.51
2019-01-18T08:56:51.618Z,-6.49
2019-01-18T08:58:01.527Z,-6.52
2019-01-18T08:59:11.433Z,-6.41
2019-01-18T09:00:21.338Z,-6.45
2019-01-18T09:01:38.006Z,-6.42
2019-01-18T09:02:47.921Z,-6.38
2019-01-18T09:03:57.821Z,-6.39
2019-01-18T09:05:08.760Z,-6.36
2019-01-18T09:06:18.777Z,-6.38
2019-01-18T09:07:28.679Z,-6.34
2019-01-18T09:08:38.597Z,-6.38
2019-01-18T09:09:48.505Z,-6.31
2019-01-18T09:10:58.418Z,-6.34
2019-01-18T09:12:08.478Z,-6.27
2019-01-18T09:13:18.516Z,-6.26
2019-01-18T09:14:28.461Z,-6.12
2019-01-18T09:15:38.376Z,-6.12
2019-01-18T09:16:48.288Z,-6.03
2019-01-18T09:17:58.256Z,-6.03
2019-01-18T09:19:08.170Z,-6
2019-01-18T09:20:18.082Z,-5.97
2019-01-18T09:21:27.996Z,-6.06
2019-01-18T09:22:37.909Z,-6.05
2019-01-18T09:23:47.875Z,-6.03
2019-01-18T09:24:57.803Z,-6.05
2019-01-18T09:26:07.780Z,-5.97
2019-01-18T09:27:17.686Z,-6
2019-01-18T09:28:27.616Z,-6.02
2019-01-18T09:29:37.674Z,-6
2019-01-18T09:30:47.581Z,-6
2019-01-18T09:31:57.491Z,-6.03
2019-01-18T09:33:07.399Z,-6.05
2019-01-18T09:34:17.307Z,-6.03
2019-01-18T09:35:27.337Z,-6.1
2019-01-18T09:36:37.270Z,-6.07
2019-01-18T09:37:47.608Z,-6.07
2019-01-18T09:38:57.756Z,-6.05
2019-01-18T09:40:07.693Z,-6.02
2019-01-18T09:41:18.012Z,-6.06
2019-01-18T09:42:28.120Z,-6.06
2019-01-18T09:43:38.011Z,-5.97
2019-01-18T09:44:47.978Z,-5.99
2019-01-18T09:45:58.012Z,-5.95
2019-01-18T09:47:08.107Z,-5.89
2019-01-18T09:48:18.387Z,-5.91
2019-01-18T09:49:28.351Z,-5.84
2019-01-18T09:50:38.303Z,-5.89
2019-01-18T09:51:48.450Z,-5.78
2019-01-18T09:52:58.510Z,-5.77
2019-01-18T09:54:08.496Z,-5.81
2019-01-18T09:55:18.165Z,-5.66
2019-01-18T09:56:28.230Z,-5.66
2019-01-18T09:57:38.359Z,-5.58
2019-01-18T09:58:48.392Z,-5.49
2019-01-18T09:59:58.299Z,-5.46
2019-01-18T10:01:08.223Z,-5.39
2019-01-18T10:02:18.136Z,-5.45
2019-01-18T10:03:28.052Z,-5.31
2019-01-18T10:04:37.967Z,-5.23
2019-01-18T10:05:47.879Z,-5.13
2019-01-18T10:06:57.788Z,-5.12
2019-01-18T10:08:07.721Z,-5.1
2019-01-18T10:09:17.641Z,-5.09
2019-01-18T10:10:27.403Z,-5.05
2019-01-18T10:11:37.059Z,-4.88
2019-01-18T10:12:46.975Z,-4.94
2019-01-18T10:13:56.885Z,-4.84
2019-01-18T10:15:06.802Z,-4.77
2019-01-18T10:16:16.710Z,-4.87
2019-01-18T10:17:26.619Z,-4.88
2019-01-18T10:18:36.537Z,-4.83
2019-01-18T10:19:46.302Z,-4.87
2019-01-18T10:20:56.270Z,-4.87
2019-01-18T10:22:06.299Z,-4.84
2019-01-18T10:23:16.220Z,-4.83
2019-01-18T10:24:26.151Z,-4.8
2019-01-18T10:25:36.056Z,-4.83
2019-01-18T10:26:46.215Z,-4.81
2019-01-18T10:27:56.175Z,-4.83
2019-01-18T10:29:06.112Z,-4.74
2019-01-18T10:30:16.021Z,-4.76
2019-01-18T10:31:25.936Z,-4.73
2019-01-18T10:32:35.851Z,-4.71
2019-01-18T10:33:47.229Z,-4.73
2019-01-18T10:34:57.140Z,-4.74
2019-01-18T10:36:06.824Z,-4.71
2019-01-18T10:37:16.729Z,-4.77
2019-01-18T10:38:26.642Z,-4.74
2019-01-18T10:39:36.651Z,-4.74
2019-01-18T10:40:46.559Z,-4.77
2019-01-18T10:41:56.464Z,-4.73
2019-01-18T10:43:06.384Z,-4.79
2019-01-18T10:44:16.293Z,-4.74
2019-01-18T10:45:26.203Z,-4.79
2019-01-18T10:46:36.111Z,-4.74
2019-01-18T10:47:46.016Z,-4.7
2019-01-18T10:48:55.932Z,-4.63
2019-01-18T10:50:05.845Z,-4.58
2019-01-18T10:51:15.861Z,-4.26
2019-01-18T10:52:25.771Z,-4.16
2019-01-18T10:53:35.701Z,-4.04
2019-01-18T10:54:45.614Z,-3.91
2019-01-18T10:55:55.524Z,-3.8
2019-01-18T10:57:05.511Z,-3.68
2019-01-18T10:58:15.429Z,-3.62
2019-01-18T10:59:25.337Z,-3.61
2019-01-18T11:00:35.253Z,-3.44
2019-01-18T11:01:45.164Z,-3.43
2019-01-18T11:02:55.187Z,-3.27
2019-01-18T11:04:05.105Z,-3.11
2019-01-18T11:05:15.023Z,-3.08
2019-01-18T11:06:24.930Z,-2.99
2019-01-18T11:07:34.842Z,-2.87
2019-01-18T11:08:44.751Z,-2.68
2019-01-18T11:09:54.664Z,-2.55
2019-01-18T11:11:04.577Z,-2.48
2019-01-18T11:12:14.490Z,-2.5
2019-01-18T11:13:24.401Z,-2.48
2019-01-18T11:14:34.410Z,-2.5
2019-01-18T11:15:44.322Z,-2.4
2019-01-18T11:16:54.235Z,-2.39
2019-01-18T11:18:04.149Z,-2.33
2019-01-18T11:19:14.071Z,-2.25
2019-01-18T11:20:23.986Z,-2.26
2019-01-18T11:21:33.902Z,-2.15
2019-01-18T11:22:43.817Z,-2.1
2019-01-18T11:23:53.730Z,-1.97
2019-01-18T11:25:03.643Z,-1.99
2019-01-18T11:26:13.614Z,-2.04
2019-01-18T11:27:23.524Z,-2
2019-01-18T11:28:33.434Z,-2.04
2019-01-18T11:29:43.357Z,-1.84
2019-01-18T11:30:53.288Z,-1.9
2019-01-18T11:32:03.203Z,-1.86
2019-01-18T11:33:19.003Z,-1.76
2019-01-18T11:34:28.924Z,-1.72
2019-01-18T11:35:38.835Z,-1.66
2019-01-18T11:36:48.750Z,-1.57
2019-01-18T11:38:02.571Z,-1.56
2019-01-18T11:39:12.486Z,-1.38
2019-01-18T11:40:22.402Z,-1.3
2019-01-18T11:41:32.322Z,-1.24
2019-01-18T11:42:42.238Z,-1.11
2019-01-18T11:43:52.306Z,-1.11
2019-01-18T11:45:02.225Z,-0.94
2019-01-18T11:46:12.143Z,-0.93
2019-01-18T11:47:22.056Z,-0.75
2019-01-18T11:48:31.987Z,-0.67
2019-01-18T11:49:42.000Z,-0.49
2019-01-18T11:50:51.913Z,-0.44
2019-01-18T11:52:01.628Z,-0.42
2019-01-18T11:53:11.541Z,-0.18
2019-01-18T11:54:21.452Z,-0.07
2019-01-18T11:55:31.514Z,0.02
2019-01-18T11:56:41.431Z,0.08
2019-01-18T11:57:51.360Z,0.19
2019-01-18T11:59:01.274Z,0.18
2019-01-18T12:00:11.191Z,0.42
2019-01-18T12:01:21.169Z,0.73
2019-01-18T12:02:31.097Z,0.95
2019-01-18T12:03:41.016Z,1.25
2019-01-18T12:04:50.934Z,1.64
2019-01-18T12:06:00.851Z,2
2019-01-18T12:07:10.871Z,2.22
2019-01-18T12:08:20.791Z,2.18
2019-01-18T12:09:30.711Z,1.97
2019-01-18T12:10:40.628Z,2.14
2019-01-18T12:11:50.559Z,2.51
2019-01-18T12:13:00.683Z,2.72
2019-01-18T12:14:10.604Z,3
2019-01-18T12:15:20.537Z,3.13
2019-01-18T12:16:30.458Z,3.49
2019-01-18T12:17:40.390Z,3.7
2019-01-18T12:18:50.370Z,4
2019-01-18T12:20:00.293Z,4.18
2019-01-18T12:21:10.214Z,4.5
2019-01-18T12:22:20.525Z,4.49
2019-01-18T12:23:30.446Z,4.63
2019-01-18T12:24:40.460Z,4.76
2019-01-18T12:25:50.384Z,4.79
2019-01-18T12:27:00.309Z,4.78
2019-01-18T12:28:10.232Z,4.92
2019-01-18T12:29:19.901Z,5
2019-01-18T12:30:30.831Z,4.75
2019-01-18T12:31:40.757Z,4.74
2019-01-18T12:32:50.680Z,4.75
2019-01-18T12:34:00.602Z,4.87
2019-01-18T12:35:10.525Z,4.76
2019-01-18T12:36:20.253Z,4.6
2019-01-18T12:37:30.174Z,4.34
2019-01-18T12:38:40.096Z,4.1
2019-01-18T12:39:50.020Z,3.77
2019-01-18T12:40:59.685Z,3.43
2019-01-18T12:42:09.411Z,3.06
2019-01-18T12:43:19.335Z,2.82
2019-01-18T12:44:29.003Z,2.61
2019-01-18T12:45:38.928Z,2.58
2019-01-18T12:46:49.211Z,2.36
2019-01-18T12:47:59.234Z,2.19
2019-01-18T12:49:09.148Z,1.97
2019-01-18T12:50:19.089Z,1.89
2019-01-18T12:51:29.008Z,1.86
2019-01-18T12:52:38.671Z,1.76
2019-01-18T12:53:48.590Z,1.74
2019-01-18T12:54:58.518Z,1.63
2019-01-18T12:56:08.439Z,1.57
2019-01-18T12:57:18.370Z,1.6
2019-01-18T12:58:28.285Z,1.49
2019-01-18T12:59:38.253Z,1.34
2019-01-18T13:00:48.174Z,1.25
2019-01-18T13:01:58.100Z,1.2
2019-01-18T13:03:08.023Z,1.12
2019-01-18T13:04:17.937Z,1.06
2019-01-18T13:05:27.714Z,1.24
2019-01-18T13:06:37.632Z,1.16
2019-01-18T13:07:47.553Z,1.14
2019-01-18T13:08:57.472Z,1.3
2019-01-18T13:10:14.334Z,1.46
2019-01-18T13:11:24.313Z,1.58
2019-01-18T13:12:34.245Z,1.6
2019-01-18T13:13:44.164Z,1.7
2019-01-18T13:14:57.275Z,1.56
2019-01-18T13:16:07.338Z,1.3
2019-01-18T13:17:17.355Z,1.48
2019-01-18T13:18:27.275Z,1.43
2019-01-18T13:19:37.188Z,1.4
2019-01-18T13:20:47.107Z,1.48
2019-01-18T13:21:57.032Z,1.57
2019-01-18T13:23:07.050Z,1.75
2019-01-18T13:24:16.970Z,1.6
2019-01-18T13:25:26.639Z,1.38
2019-01-18T13:26:36.557Z,1.09
2019-01-18T13:27:46.476Z,0.82
2019-01-18T13:28:56.494Z,0.47
2019-01-18T13:30:06.412Z,0.29
2019-01-18T13:31:16.076Z,0.01
2019-01-18T13:32:25.989Z,-0.21
2019-01-18T13:33:35.904Z,-0.39
2019-01-18T13:34:45.930Z,-0.57
2019-01-18T13:35:55.850Z,-0.78
2019-01-18T13:37:05.760Z,-0.99
2019-01-18T13:38:15.673Z,-1.17
2019-01-18T13:39:25.589Z,-1.27
2019-01-18T13:40:35.561Z,-1.39
2019-01-18T13:41:45.482Z,-1.5
2019-01-18T13:42:55.399Z,-1.71
2019-01-18T13:44:05.315Z,-1.86
2019-01-18T13:45:15.230Z,-2
2019-01-18T13:46:29.606Z,-2.02
2019-01-18T13:47:39.520Z,-2.18
2019-01-18T13:48:49.435Z,-2.29
2019-01-18T13:49:59.368Z,-2.28
2019-01-18T13:51:09.056Z,-2.39
2019-01-18T13:52:19.017Z,-2.57
2019-01-18T13:53:28.949Z,-2.66
2019-01-18T13:54:38.865Z,-2.7
2019-01-18T13:55:48.775Z,-2.72
2019-01-18T13:56:59.676Z,-2.76
2019-01-18T13:58:10.364Z,-2.9
2019-01-18T13:59:20.334Z,-2.89
2019-01-18T14:00:30.246Z,-2.87
2019-01-18T14:01:40.158Z,-2.89
